Time;durP1;ratioP1;P1;durP2;ratioP2;P2;SDS_P1;SDS_P2;PMS_P1;PMS_P2;Temp;Humidity;BMP_temperature;BMP_pressure;BME280_temperature;BME280_humidity;BME280_pressure;Samples;Min_cycle;Max_cycle;Signal;HPM_P1;HPM_P2
2021/03/07 00:00:30;;;;;;;11.10;7.93;;;-1.10;40.90;;;;;;5077597;28;37373;-83
2021/03/07 00:02:58;;;;;;;13.17;8.87;;;-1.20;40.90;;;;;;5070275;28;35685;-83
2021/03/07 00:05:25;;;;;;;13.17;8.90;;;-1.20;41.00;;;;;;5074802;28;40378;-82
2021/03/07 00:07:54;;;;;;;11.83;8.53;;;-1.20;41.20;;;;;;5063985;28;39156;-80
2021/03/07 00:10:24;;;;;;;16.63;9.53;;;-1.10;41.50;;;;;;5062803;28;38683;-80
2021/03/07 00:12:54;;;;;;;11.20;8.20;;;-1.20;41.50;;;;;;5065285;28;37363;-81
2021/03/07 00:15:23;;;;;;;11.70;8.87;;;-1.20;41.90;;;;;;5057876;28;38521;-81
2021/03/07 00:17:53;;;;;;;13.10;8.80;;;-1.20;42.20;;;;;;5066176;28;39900;-81
2021/03/07 00:20:23;;;;;;;13.37;9.50;;;-1.30;42.10;;;;;;5069335;28;37995;-82
2021/03/07 00:22:53;;;;;;;12.20;9.40;;;-1.30;42.30;;;;;;5054346;28;37078;-82
2021/03/07 00:25:20;;;;;;;12.63;9.00;;;-1.40;42.30;;;;;;5074931;28;39186;-81
2021/03/07 00:27:47;;;;;;;11.97;8.87;;;-1.40;42.50;;;;;;5066112;28;39119;-82
2021/03/07 00:30:18;;;;;;;9.90;8.70;;;-1.40;42.70;;;;;;5074273;28;38943;-82
2021/03/07 00:32:46;;;;;;;11.20;8.23;;;-1.50;42.70;;;;;;5073432;28;35684;-81
2021/03/07 00:35:14;;;;;;;11.00;8.53;;;-1.50;42.70;;;;;;5062397;28;39740;-81
2021/03/07 00:37:42;;;;;;;13.10;9.30;;;-1.50;42.80;;;;;;5074434;28;38747;-81
2021/03/07 00:40:14;;;;;;;14.37;9.93;;;-1.50;43.70;;;;;;5071185;28;38232;-81
2021/03/07 00:42:43;;;;;;;12.40;9.93;;;-1.50;43.10;;;;;;5068304;28;37020;-82
2021/03/07 00:45:11;;;;;;;14.30;9.40;;;-1.50;43.30;;;;;;5072310;28;40466;-82
2021/03/07 00:47:38;;;;;;;14.53;9.50;;;-1.50;43.40;;;;;;5070503;28;39742;-81
2021/03/07 00:50:09;;;;;;;14.73;9.60;;;-1.60;43.40;;;;;;5071143;28;36976;-80
2021/03/07 00:52:36;;;;;;;12.00;9.47;;;-1.60;43.40;;;;;;5071332;28;37213;-81
2021/03/07 00:55:07;;;;;;;14.73;9.40;;;-1.60;43.30;;;;;;5067649;28;38379;-80
2021/03/07 00:57:37;;;;;;;11.80;8.77;;;-1.60;43.40;;;;;;5072846;28;37438;-82
2021/03/07 01:00:11;;;;;;;16.77;8.87;;;-1.60;43.20;;;;;;5073445;28;37900;-81
2021/03/07 01:02:39;;;;;;;12.10;8.83;;;-1.60;43.30;;;;;;5066986;28;37006;-81
2021/03/07 01:05:07;;;;;;;19.20;9.97;;;-1.70;43.40;;;;;;5067548;28;37839;-81
2021/03/07 01:07:35;;;;;;;13.50;9.47;;;-1.70;43.50;;;;;;5066303;28;37809;-83
2021/03/07 01:10:09;;;;;;;13.27;8.40;;;-1.80;43.70;;;;;;5067345;28;38585;-82
2021/03/07 01:12:40;;;;;;;11.13;8.10;;;-1.80;43.80;;;;;;5062916;28;37482;-82
2021/03/07 01:15:09;;;;;;;11.53;8.50;;;-1.80;43.90;;;;;;5067679;28;40834;-81
2021/03/07 01:17:37;;;;;;;10.53;7.63;;;-1.80;43.90;;;;;;5063595;28;38764;-82
2021/03/07 01:20:09;;;;;;;12.90;8.63;;;-1.80;43.80;;;;;;5069490;28;37849;-80
2021/03/07 01:22:38;;;;;;;12.17;8.63;;;-1.80;43.80;;;;;;5069149;28;37800;-82
2021/03/07 01:25:07;;;;;;;10.80;8.70;;;-1.70;44.00;;;;;;5065517;28;39523;-81
2021/03/07 01:27:35;;;;;;;9.83;6.73;;;-1.80;43.90;;;;;;5065162;28;38069;-81
2021/03/07 01:30:06;;;;;;;10.93;7.90;;;-1.80;44.10;;;;;;5061402;28;38639;-82
2021/03/07 01:32:33;;;;;;;11.40;7.80;;;-1.80;44.10;;;;;;5073283;28;37250;-82
2021/03/07 01:35:03;;;;;;;9.90;7.27;;;-1.80;43.90;;;;;;5067299;28;39692;-81
2021/03/07 01:37:31;;;;;;;11.90;7.50;;;-1.90;43.80;;;;;;5063794;28;38945;-81
2021/03/07 01:39:58;;;;;;;10.60;7.27;;;-2.00;44.00;;;;;;5068118;28;38911;-82
2021/03/07 01:42:25;;;;;;;16.30;8.30;;;-2.00;44.20;;;;;;5068182;28;37123;-82
2021/03/07 01:44:53;;;;;;;10.53;7.33;;;-2.00;44.30;;;;;;5087878;28;39841;-81
2021/03/07 01:47:30;;;;;;;10.07;7.17;;;-2.00;44.20;;;;;;5075836;28;39224;-83
2021/03/07 01:49:58;;;;;;;10.10;7.30;;;-2.00;44.30;;;;;;5071344;28;38844;-81
2021/03/07 01:52:28;;;;;;;10.30;8.00;;;-2.10;44.20;;;;;;5073464;28;37148;-82
2021/03/07 01:54:55;;;;;;;10.20;7.80;;;-2.10;44.30;;;;;;5067681;28;39364;-81
2021/03/07 01:57:25;;;;;;;11.40;8.03;;;-2.20;44.40;;;;;;5062559;28;38076;-82
2021/03/07 01:59:57;;;;;;;10.37;7.10;;;-2.20;44.50;;;;;;5069373;28;36859;-81
2021/03/07 02:02:27;;;;;;;10.83;7.47;;;-2.20;44.40;;;;;;5065999;28;36274;-81
2021/03/07 02:04:55;;;;;;;11.97;8.30;;;-2.20;44.60;;;;;;5071478;28;39621;-81
2021/03/07 02:07:22;;;;;;;10.83;8.00;;;-2.30;44.80;;;;;;5073212;28;39050;-81
2021/03/07 02:09:50;;;;;;;10.00;7.53;;;-2.20;44.90;;;;;;5071463;28;37235;-82
2021/03/07 02:12:20;;;;;;;10.53;7.80;;;-2.20;44.70;;;;;;5071024;28;37795;-81
2021/03/07 02:14:51;;;;;;;11.23;7.70;;;-2.30;44.90;;;;;;5070899;28;38586;-82
2021/03/07 02:17:19;;;;;;;12.23;7.80;;;-2.30;44.90;;;;;;5067847;28;39861;-81
2021/03/07 02:19:53;;;;;;;10.17;8.20;;;-2.40;45.00;;;;;;5072508;28;37047;-81
2021/03/07 02:22:36;;;;;;;11.47;8.17;;;-2.40;45.30;;;;;;5069940;28;37309;-81
2021/03/07 02:25:06;;;;;;;10.70;8.13;;;-2.40;45.30;;;;;;5068573;28;39097;-81
2021/03/07 02:27:34;;;;;;;11.83;8.20;;;-2.40;45.30;;;;;;5072641;28;38494;-81
2021/03/07 02:30:05;;;;;;;13.33;7.57;;;-2.40;45.30;;;;;;5066011;28;38646;-82
2021/03/07 02:32:36;;;;;;;10.40;8.23;;;-2.50;45.40;;;;;;5064001;28;36958;-81
2021/03/07 02:35:06;;;;;;;9.73;6.70;;;-2.40;45.50;;;;;;5057982;28;39237;-81
2021/03/07 02:37:34;;;;;;;9.87;8.23;;;-2.40;45.40;;;;;;5072639;28;38783;-82
2021/03/07 02:40:03;;;;;;;9.77;7.77;;;-2.40;45.50;;;;;;5067063;28;37406;-82
2021/03/07 02:42:33;;;;;;;10.60;7.67;;;-2.40;45.30;;;;;;5062476;28;37134;-82
2021/03/07 02:45:04;;;;;;;9.47;6.57;;;-2.40;45.40;;;;;;5071318;28;40408;-82
2021/03/07 02:47:37;;;;;;;9.97;7.07;;;-2.50;45.60;;;;;;5070641;28;38329;-82
2021/03/07 02:50:09;;;;;;;10.30;7.60;;;-2.50;45.60;;;;;;5068959;28;38057;-82
2021/03/07 02:52:42;;;;;;;9.50;6.90;;;-2.50;45.70;;;;;;5060917;28;37183;-82
2021/03/07 02:55:11;;;;;;;9.63;7.23;;;-2.50;45.70;;;;;;5066850;28;40022;-81
2021/03/07 02:57:46;;;;;;;10.73;7.43;;;-2.50;45.70;;;;;;5062501;28;38713;-81
2021/03/07 03:00:15;;;;;;;8.10;5.97;;;-2.60;45.80;;;;;;5068837;28;37816;-81
2021/03/07 03:02:44;;;;;;;9.03;6.10;;;-2.60;46.00;;;;;;5071114;28;36290;-82
2021/03/07 03:05:13;;;;;;;9.33;7.30;;;-2.60;46.00;;;;;;5066319;28;38636;-81
2021/03/07 03:07:41;;;;;;;8.30;6.30;;;-2.60;46.10;;;;;;5075326;28;37767;-81
2021/03/07 03:10:11;;;;;;;9.30;7.10;;;-2.60;46.20;;;;;;5066949;28;38530;-81
2021/03/07 03:12:44;;;;;;;8.50;6.73;;;-2.60;46.20;;;;;;5069503;28;36778;-81
2021/03/07 03:15:13;;;;;;;9.20;6.40;;;-2.60;46.30;;;;;;5067910;28;38580;-81
2021/03/07 03:17:41;;;;;;;8.60;6.40;;;-2.70;46.30;;;;;;5057011;28;39312;-82
2021/03/07 03:20:13;;;;;;;9.97;6.70;;;-2.70;46.30;;;;;;5062556;28;37272;-82
2021/03/07 03:22:41;;;;;;;9.73;6.57;;;-2.70;46.60;;;;;;5069212;28;37334;-81
2021/03/07 03:25:09;;;;;;;8.37;6.53;;;-2.70;46.70;;;;;;5068980;28;39598;-82
2021/03/07 03:27:38;;;;;;;10.17;8.13;;;-2.70;46.90;;;;;;5057817;28;37895;-82
2021/03/07 03:30:10;;;;;;;8.27;6.90;;;-2.80;46.80;;;;;;5071370;28;37687;-82
2021/03/07 03:32:40;;;;;;;10.40;7.00;;;-2.80;46.80;;;;;;5065147;28;38099;-82
2021/03/07 03:35:09;;;;;;;10.23;6.87;;;-2.80;46.90;;;;;;5068126;28;38178;-82
2021/03/07 03:37:37;;;;;;;9.20;7.10;;;-2.80;46.90;;;;;;5070277;28;38296;-82
2021/03/07 03:40:05;;;;;;;8.00;6.27;;;-2.80;46.90;;;;;;5063010;28;36672;-82
2021/03/07 03:42:33;;;;;;;9.83;7.20;;;-2.80;47.00;;;;;;5062567;28;35738;-82
2021/03/07 03:45:00;;;;;;;13.40;7.77;;;-2.80;46.90;;;;;;5070916;28;40057;-82
2021/03/07 03:47:29;;;;;;;11.57;7.00;;;-2.80;46.90;;;;;;5060179;28;38521;-82
2021/03/07 03:49:58;;;;;;;8.33;6.67;;;-2.80;46.90;;;;;;5071375;28;38921;-80
2021/03/07 03:52:30;;;;;;;8.80;6.93;;;-2.90;46.90;;;;;;5071255;28;36855;-81
2021/03/07 03:54:59;;;;;;;8.97;7.10;;;-2.90;47.00;;;;;;5072542;28;40579;-81
2021/03/07 03:57:29;;;;;;;9.83;7.67;;;-2.80;47.20;;;;;;5063814;28;37952;-82
2021/03/07 04:00:01;;;;;;;9.93;8.03;;;-2.90;47.30;;;;;;5071971;28;37940;-81
2021/03/07 04:02:34;;;;;;;8.80;7.07;;;-2.90;47.20;;;;;;5071731;28;37687;-83
2021/03/07 04:05:05;;;;;;;10.03;7.03;;;-2.90;47.20;;;;;;5069198;28;40634;-82
2021/03/07 04:07:32;;;;;;;11.57;8.00;;;-2.90;47.50;;;;;;5072154;28;38650;-82
2021/03/07 04:10:05;;;;;;;11.27;8.00;;;-2.90;47.50;;;;;;5075809;28;38286;-82
2021/03/07 04:12:33;;;;;;;9.97;7.07;;;-2.90;47.40;;;;;;5081230;22;37206;-79
2021/03/07 04:15:01;;;;;;;9.73;7.20;;;-2.90;47.40;;;;;;5008878;28;39420;-79
2021/03/07 04:17:28;;;;;;;10.77;6.93;;;-2.90;47.30;;;;;;5012341;28;38846;-79
2021/03/07 04:19:57;;;;;;;8.07;6.97;;;-3.00;47.10;;;;;;5015738;28;38702;-79
2021/03/07 04:22:25;;;;;;;10.67;7.60;;;-3.00;47.10;;;;;;5023862;28;35986;-79
2021/03/07 04:24:52;;;;;;;9.87;7.60;;;-3.00;47.10;;;;;;5000640;28;40324;-79
2021/03/07 04:27:23;;;;;;;8.30;6.70;;;-3.00;47.30;;;;;;5013056;28;39766;-79
2021/03/07 04:29:54;;;;;;;9.97;7.13;;;-3.00;47.20;;;;;;5015240;28;38151;-79
2021/03/07 04:32:22;;;;;;;8.97;7.07;;;-2.90;47.20;;;;;;5013563;28;37059;-79
2021/03/07 04:34:49;;;;;;;9.63;6.87;;;-2.90;46.90;;;;;;5006752;28;40448;-79
2021/03/07 04:37:17;;;;;;;7.93;6.43;;;-2.90;47.50;;;;;;5014811;28;38183;-79
2021/03/07 04:39:44;;;;;;;7.97;6.80;;;-2.90;46.90;;;;;;5015847;28;38577;-79
2021/03/07 04:42:14;;;;;;;9.53;7.43;;;-2.90;46.80;;;;;;5011087;28;35759;-79
2021/03/07 04:44:43;;;;;;;9.00;6.90;;;-3.00;46.90;;;;;;5009593;28;40583;-80
2021/03/07 04:47:10;;;;;;;9.20;7.17;;;-3.00;47.00;;;;;;5010978;28;37857;-79
2021/03/07 04:49:37;;;;;;;8.37;6.60;;;-3.10;47.00;;;;;;5011481;28;37593;-79
2021/03/07 04:52:05;;;;;;;9.80;7.13;;;-3.00;47.10;;;;;;5020306;28;37820;-80
2021/03/07 04:54:35;;;;;;;10.63;8.40;;;-3.00;46.90;;;;;;5007429;28;39234;-79
2021/03/07 04:57:02;;;;;;;10.07;8.33;;;-3.10;46.90;;;;;;5012114;28;38765;-79
2021/03/07 04:59:33;;;;;;;10.80;7.67;;;-3.10;47.00;;;;;;5013856;28;37812;-80
2021/03/07 05:02:00;;;;;;;8.90;7.17;;;-3.20;47.20;;;;;;5012115;28;37326;-80
2021/03/07 05:04:27;;;;;;;10.80;7.80;;;-3.20;47.40;;;;;;5003268;28;39370;-79
2021/03/07 05:06:54;;;;;;;12.37;8.33;;;-3.10;47.40;;;;;;5007036;28;39752;-79
2021/03/07 05:09:21;;;;;;;9.37;7.50;;;-3.20;47.50;;;;;;5010471;28;37851;-79
2021/03/07 05:11:49;;;;;;;10.90;8.40;;;-3.20;47.50;;;;;;5018408;28;37853;-79
2021/03/07 05:14:18;;;;;;;11.73;7.50;;;-3.10;47.40;;;;;;5027127;28;38565;-80
2021/03/07 05:16:45;;;;;;;12.37;7.67;;;-3.10;47.60;;;;;;5025429;28;38426;-79
2021/03/07 05:19:12;;;;;;;10.20;7.33;;;-3.10;47.60;;;;;;5015786;28;39059;-79
2021/03/07 05:21:42;;;;;;;11.83;7.40;;;-3.10;47.60;;;;;;5005042;28;34989;-81
2021/03/07 05:24:10;;;;;;;9.03;7.10;;;-3.10;47.60;;;;;;5015587;28;40743;-80
2021/03/07 05:26:37;;;;;;;11.97;7.93;;;-3.10;47.50;;;;;;4986177;28;39855;-80
2021/03/07 05:29:05;;;;;;;12.20;8.03;;;-3.20;47.50;;;;;;5024552;28;37615;-79
2021/03/07 05:31:34;;;;;;;10.33;8.07;;;-3.20;47.50;;;;;;5026361;28;38867;-79
2021/03/07 05:34:01;;;;;;;8.60;6.50;;;-3.10;47.60;;;;;;5027948;28;39278;-79
2021/03/07 05:36:28;;;;;;;9.30;7.50;;;-3.10;47.60;;;;;;5028097;28;37916;-79
2021/03/07 05:38:55;;;;;;;10.53;7.47;;;-3.20;47.60;;;;;;5011954;28;36517;-79
2021/03/07 05:41:22;;;;;;;10.40;7.63;;;-3.20;47.80;;;;;;5012632;28;35913;-79
2021/03/07 05:43:50;;;;;;;11.27;7.90;;;-3.10;47.90;;;;;;5010751;28;39735;-79
2021/03/07 05:46:18;;;;;;;11.30;7.73;;;-3.10;47.60;;;;;;5011796;28;39297;-79
2021/03/07 05:48:46;;;;;;;10.10;7.80;;;-3.10;47.60;;;;;;5014493;28;38826;-79
2021/03/07 05:51:13;;;;;;;10.60;7.70;;;-3.10;47.80;;;;;;5012272;28;35496;-79
2021/03/07 05:53:42;;;;;;;10.17;7.47;;;-3.10;47.80;;;;;;5012855;28;40000;-80
2021/03/07 05:56:12;;;;;;;8.37;7.07;;;-3.10;48.00;;;;;;5028134;28;38918;-79
2021/03/07 05:58:42;;;;;;;9.97;7.97;;;-3.00;48.90;;;;;;5014216;28;37944;-79
2021/03/07 06:01:09;;;;;;;8.60;6.80;;;-2.90;47.70;;;;;;5013713;28;37935;-79
2021/03/07 06:03:37;;;;;;;9.63;6.90;;;-2.70;47.90;;;;;;5013692;28;39149;-79
2021/03/07 06:06:05;;;;;;;10.73;6.60;;;-2.70;47.60;;;;;;5030326;28;37539;-80
2021/03/07 06:08:32;;;;;;;10.27;7.10;;;-2.60;47.60;;;;;;5028271;28;37883;-79
2021/03/07 06:10:59;;;;;;;11.50;7.20;;;-2.60;47.30;;;;;;5013791;28;37020;-80
2021/03/07 06:13:37;;;;;;;11.23;7.57;;;-2.60;47.40;;;;;;5018927;28;39489;-80
2021/03/07 06:16:08;;;;;;;9.27;6.20;;;-2.50;47.40;;;;;;5016569;28;38635;-79
2021/03/07 06:18:44;;;;;;;8.47;7.10;;;-2.50;47.50;;;;;;5013614;28;38962;-80
2021/03/07 06:21:31;;;;;;;9.77;6.63;;;-2.50;47.80;;;;;;5000047;28;37122;-79
2021/03/07 06:24:00;;;;;;;11.70;7.77;;;-2.30;47.30;;;;;;5012286;28;38962;-79
2021/03/07 06:26:29;;;;;;;13.73;8.53;;;-2.20;47.10;;;;;;5011444;28;38927;-79
2021/03/07 06:29:07;;;;;;;9.87;7.77;;;-2.10;47.00;;;;;;5013547;28;38536;-79
2021/03/07 06:31:34;;;;;;;10.27;7.87;;;-2.00;47.30;;;;;;5000537;28;37121;-80
2021/03/07 06:34:05;;;;;;;10.87;7.20;;;-1.60;48.50;;;;;;5013007;28;39480;-80
2021/03/07 06:36:32;;;;;;;10.87;7.50;;;-0.90;49.20;;;;;;5035962;28;37762;-79
2021/03/07 06:39:01;;;;;;;8.17;6.53;;;0.20;48.20;;;;;;5013635;28;38666;-80
2021/03/07 06:41:31;;;;;;;7.50;6.07;;;1.60;46.50;;;;;;5012655;28;36824;-80
2021/03/07 06:44:08;;;;;;;7.57;6.07;;;3.00;42.70;;;;;;5020845;28;39548;-80
2021/03/07 06:46:37;;;;;;;7.00;6.20;;;4.80;37.50;;;;;;5020760;28;38950;-80
2021/03/07 06:49:06;;;;;;;8.30;6.77;;;6.10;33.40;;;;;;5028248;28;36784;-81
2021/03/07 06:51:34;;;;;;;8.27;6.97;;;7.40;30.50;;;;;;5012134;28;37104;-80
2021/03/07 06:54:14;;;;;;;7.33;6.47;;;8.50;28.40;;;;;;5012642;28;39830;-81
2021/03/07 06:56:43;;;;;;;8.83;7.93;;;9.60;27.60;;;;;;4997432;28;39797;-82
2021/03/07 06:59:16;;;;;;;7.13;6.33;;;10.60;25.60;;;;;;5019168;28;36681;-81
2021/03/07 07:01:47;;;;;;;7.70;6.90;;;11.40;23.70;;;;;;5010270;28;37084;-81
2021/03/07 07:04:16;;;;;;;8.70;7.90;;;12.00;23.20;;;;;;5011449;28;39777;-79
2021/03/07 07:06:59;;;;;;;9.33;8.17;;;12.50;22.60;;;;;;5011024;28;37756;-79
2021/03/07 07:09:26;;;;;;;9.17;8.27;;;13.10;22.00;;;;;;5010503;28;37973;-79
2021/03/07 07:11:54;;;;;;;8.97;8.07;;;13.70;21.30;;;;;;5017954;28;37197;-77
2021/03/07 07:14:30;;;;;;;9.43;8.50;;;14.20;20.40;;;;;;4996359;28;40601;-79
2021/03/07 07:16:59;;;;;;;9.80;8.80;;;14.50;19.40;;;;;;5015960;28;38780;-79
2021/03/07 07:19:27;;;;;;;9.80;8.03;;;14.40;19.80;;;;;;5012153;28;38833;-79
2021/03/07 07:21:54;;;;;;;8.53;7.73;;;15.20;19.70;;;;;;5016961;28;37255;-79
2021/03/07 07:24:23;;;;;;;8.90;8.00;;;15.90;18.90;;;;;;5015561;28;39506;-79
2021/03/07 07:26:50;;;;;;;9.20;8.40;;;16.60;18.20;;;;;;5014105;28;38798;-79
2021/03/07 07:29:17;;;;;;;8.63;7.83;;;17.20;18.00;;;;;;4999452;28;37984;-79
2021/03/07 07:31:50;;;;;;;8.47;7.67;;;18.00;17.50;;;;;;5015392;28;37136;-79
2021/03/07 07:34:20;;;;;;;8.43;7.63;;;18.20;16.70;;;;;;5008816;28;40744;-79
2021/03/07 07:36:51;;;;;;;9.23;8.33;;;18.30;16.60;;;;;;5016231;28;37942;-80
2021/03/07 07:39:26;;;;;;;10.67;9.50;;;18.50;16.50;;;;;;5007242;28;37987;-80
2021/03/07 07:41:53;;;;;;;8.90;8.00;;;18.90;16.20;;;;;;5011848;28;35792;-81
2021/03/07 07:44:29;;;;;;;7.93;7.13;;;19.10;15.90;;;;;;5022642;28;39352;-81
2021/03/07 07:46:59;;;;;;;8.60;7.60;;;19.50;15.80;;;;;;5008957;28;39031;-79
2021/03/07 07:49:40;;;;;;;10.40;8.13;;;19.90;15.40;;;;;;5012263;28;37832;-79
2021/03/07 07:52:47;;;;;;;8.80;8.00;;;20.20;15.00;;;;;;5000075;28;37003;-79
2021/03/07 07:55:15;;;;;;;9.43;8.50;;;20.60;14.80;;;;;;5006001;28;38703;-79
2021/03/07 07:57:50;;;;;;;8.47;7.67;;;20.30;14.70;;;;;;5004425;28;38697;-79
2021/03/07 08:00:21;;;;;;;8.20;7.50;;;20.50;14.60;;;;;;5009043;28;39104;-80
2021/03/07 08:02:58;;;;;;;9.30;7.80;;;20.50;14.10;;;;;;5011601;28;35681;-81
2021/03/07 08:05:44;;;;;;;8.70;7.90;;;20.70;14.30;;;;;;4985437;28;38625;-81
2021/03/07 08:08:14;;;;;;;8.87;7.97;;;21.10;14.00;;;;;;5008319;28;39142;-81
2021/03/07 08:10:49;;;;;;;9.47;7.63;;;21.20;14.20;;;;;;4999928;28;36658;-81
2021/03/07 08:13:48;;;;;;;8.70;7.90;;;21.40;14.30;;;;;;5010329;28;37252;-81
2021/03/07 08:16:38;;;;;;;8.13;7.33;;;22.00;13.50;;;;;;4998289;28;39101;-81
2021/03/07 08:19:10;;;;;;;7.57;6.97;;;22.40;13.30;;;;;;5015711;28;39590;-81
2021/03/07 08:21:56;;;;;;;8.37;7.57;;;22.30;13.20;;;;;;5020845;28;38534;-81
2021/03/07 08:24:24;;;;;;;8.20;7.40;;;22.90;13.30;;;;;;5018262;28;37275;-81
2021/03/07 08:27:01;;;;;;;8.27;7.43;;;22.90;12.70;;;;;;5006264;28;38612;-81
2021/03/07 08:29:54;;;;;;;7.63;6.93;;;22.70;12.50;;;;;;5019996;28;39480;-82
2021/03/07 08:32:28;;;;;;;7.97;7.17;;;23.40;12.60;;;;;;5012780;28;38173;-82
2021/03/07 08:34:56;;;;;;;8.20;6.97;;;24.00;12.10;;;;;;5024256;28;36252;-81
2021/03/07 08:37:24;;;;;;;7.20;6.50;;;23.90;11.70;;;;;;5024586;28;42449;-82
2021/03/07 08:40:29;;;;;;;7.80;7.10;;;23.90;11.80;;;;;;5008382;28;38184;-81
2021/03/07 08:42:59;;;;;;;6.53;5.93;;;24.00;12.00;;;;;;5007886;28;39053;-81
2021/03/07 08:45:26;;;;;;;8.50;7.67;;;24.00;12.00;;;;;;5020363;28;37178;-81
2021/03/07 08:47:55;;;;;;;9.60;8.60;;;23.40;11.60;;;;;;5007755;28;39382;-81
2021/03/07 08:50:23;;;;;;;8.17;7.37;;;21.70;12.20;;;;;;5024269;28;38798;-81
2021/03/07 08:52:51;;;;;;;8.53;6.83;;;19.90;12.80;;;;;;5014251;28;37773;-80
2021/03/07 08:55:18;;;;;;;8.37;7.03;;;18.30;13.70;;;;;;5014973;28;37797;-81
2021/03/07 08:57:47;;;;;;;7.30;6.60;;;17.60;14.80;;;;;;5029012;28;40647;-81
2021/03/07 09:00:18;;;;;;;7.30;6.60;;;18.20;15.20;;;;;;5013200;28;38827;-80
2021/03/07 09:02:45;;;;;;;7.10;6.40;;;19.50;14.30;;;;;;5013627;28;38697;-79
2021/03/07 09:05:31;;;;;;;7.50;6.27;;;20.80;13.50;;;;;;5014512;28;36842;-80
2021/03/07 09:07:59;;;;;;;7.17;6.47;;;21.60;12.60;;;;;;5016736;28;40449;-80
2021/03/07 09:10:31;;;;;;;8.27;7.47;;;22.00;12.50;;;;;;5012960;28;40288;-80
2021/03/07 09:13:07;;;;;;;7.07;6.47;;;22.40;12.70;;;;;;5011667;28;37726;-81
2021/03/07 09:15:35;;;;;;;7.30;6.60;;;23.20;12.40;;;;;;5014134;28;36342;-81
2021/03/07 09:18:03;;;;;;;8.30;7.50;;;23.70;12.00;;;;;;5024665;28;39340;-82
2021/03/07 09:20:45;;;;;;;7.63;6.83;;;23.40;11.70;;;;;;5013279;28;39074;-81
2021/03/07 09:23:31;;;;;;;8.43;7.63;;;23.00;12.30;;;;;;5000964;28;36623;-81
2021/03/07 09:26:00;;;;;;;8.10;7.30;;;22.60;12.70;;;;;;5013888;28;37758;-82
2021/03/07 09:28:39;;;;;;;7.37;6.67;;;22.60;12.80;;;;;;5013610;28;40257;-82
2021/03/07 09:31:09;;;;;;;7.30;6.60;;;22.80;12.80;;;;;;5010948;28;38879;-81
2021/03/07 09:33:36;;;;;;;7.63;6.97;;;22.70;12.50;;;;;;5011351;28;39616;-81
2021/03/07 09:36:11;;;;;;;7.17;6.50;;;22.60;12.50;;;;;;5024206;28;37199;-82
2021/03/07 09:38:48;;;;;;;7.90;7.10;;;22.60;12.60;;;;;;5012990;28;37944;-79
2021/03/07 09:41:26;;;;;;;7.43;6.80;;;22.40;12.50;;;;;;5011991;28;39155;-82
2021/03/07 09:43:54;;;;;;;7.23;6.40;;;21.70;12.80;;;;;;5008847;28;36719;-81
2021/03/07 09:46:23;;;;;;;7.00;6.30;;;20.80;12.30;;;;;;5008357;28;35880;-82
2021/03/07 09:48:56;;;;;;;6.70;6.00;;;19.70;13.20;;;;;;5012995;28;38636;-81
2021/03/07 09:51:23;;;;;;;7.13;5.87;;;18.50;13.50;;;;;;5007662;28;37778;-81
2021/03/07 09:53:52;;;;;;;6.63;5.63;;;17.30;14.10;;;;;;5006545;28;37754;-82
2021/03/07 09:56:24;;;;;;;7.57;6.50;;;16.20;14.90;;;;;;5021961;28;37127;-81
2021/03/07 09:58:51;;;;;;;6.70;5.87;;;15.30;15.60;;;;;;5010830;28;39459;-81
2021/03/07 10:01:19;;;;;;;7.23;6.03;;;14.60;16.00;;;;;;5012477;28;37967;-80
2021/03/07 10:03:47;;;;;;;7.77;6.20;;;14.20;16.40;;;;;;5019642;28;37855;-80
2021/03/07 10:06:16;;;;;;;7.60;5.77;;;13.70;17.10;;;;;;5017798;28;37059;-81
2021/03/07 10:08:47;;;;;;;6.80;5.83;;;13.50;17.50;;;;;;5009172;28;38241;-80
2021/03/07 10:11:19;;;;;;;5.80;5.20;;;13.20;17.40;;;;;;5012081;28;39118;-79
2021/03/07 10:13:57;;;;;;;6.63;6.00;;;13.00;18.00;;;;;;5027505;28;38351;-80
2021/03/07 10:16:27;;;;;;;6.60;5.50;;;13.10;18.00;;;;;;5009798;28;36682;-80
2021/03/07 10:19:13;;;;;;;7.70;6.90;;;13.20;18.10;;;;;;5015327;28;40534;-80
2021/03/07 10:21:42;;;;;;;7.07;5.53;;;13.10;18.10;;;;;;4998494;28;38953;-80
2021/03/07 10:24:12;;;;;;;6.33;5.73;;;13.00;18.40;;;;;;5010853;28;38163;-79
2021/03/07 10:26:40;;;;;;;10.43;6.73;;;12.90;18.30;;;;;;5009297;28;37162;-80
2021/03/07 10:29:27;;;;;;;6.63;5.57;;;13.10;18.30;;;;;;5008299;28;40023;-80
2021/03/07 10:32:07;;;;;;;6.30;5.53;;;13.20;18.30;;;;;;5012145;28;39601;-79
2021/03/07 10:34:37;;;;;;;7.00;5.90;;;13.30;18.40;;;;;;5005178;28;37666;-80
2021/03/07 10:37:06;;;;;;;7.87;6.33;;;13.70;18.00;;;;;;5010847;28;36756;-80
2021/03/07 10:39:36;;;;;;;7.67;6.97;;;14.20;17.40;;;;;;5010345;28;38363;-81
2021/03/07 10:42:11;;;;;;;7.80;6.80;;;15.00;17.70;;;;;;5010855;28;39494;-81
2021/03/07 10:44:41;;;;;;;7.33;6.60;;;16.10;16.40;;;;;;5008748;28;37729;-81
2021/03/07 10:47:16;;;;;;;7.33;6.43;;;17.20;15.90;;;;;;5010830;28;36880;-81
2021/03/07 10:49:48;;;;;;;10.80;7.77;;;17.70;15.20;;;;;;5012424;28;39304;-81
2021/03/07 10:52:16;;;;;;;9.37;7.13;;;17.80;15.50;;;;;;5007966;28;38960;-81
2021/03/07 10:54:43;;;;;;;9.87;8.33;;;17.70;15.80;;;;;;5010971;28;37755;-81
2021/03/07 10:57:11;;;;;;;7.97;7.20;;;17.10;15.30;;;;;;5010160;28;37084;-81
2021/03/07 10:59:39;;;;;;;8.60;7.67;;;16.40;16.30;;;;;;5026088;28;39625;-81
2021/03/07 11:02:08;;;;;;;8.57;7.67;;;16.00;16.90;;;;;;5010511;28;38280;-81
2021/03/07 11:04:35;;;;;;;9.80;7.90;;;15.70;17.40;;;;;;5031101;28;36342;-80
2021/03/07 11:07:04;;;;;;;8.40;7.60;;;15.40;17.40;;;;;;5010163;28;36957;-80
2021/03/07 11:09:31;;;;;;;8.43;7.40;;;15.20;17.60;;;;;;5013124;28;39391;-81
2021/03/07 11:12:00;;;;;;;14.20;8.97;;;15.10;17.80;;;;;;5014028;28;37923;-81
2021/03/07 11:14:28;;;;;;;8.47;7.33;;;15.00;18.30;;;;;;5008306;28;38145;-81
2021/03/07 11:16:55;;;;;;;9.00;8.10;;;14.70;18.90;;;;;;5001741;28;36121;-82
2021/03/07 11:19:24;;;;;;;8.40;7.50;;;14.60;19.00;;;;;;5006981;28;40214;-82
2021/03/07 11:21:54;;;;;;;14.20;8.33;;;14.50;18.90;;;;;;5007801;28;38877;-82
2021/03/07 11:24:21;;;;;;;9.40;8.20;;;14.20;19.30;;;;;;5009530;28;38607;-81
2021/03/07 11:26:48;;;;;;;8.87;7.97;;;14.10;19.70;;;;;;5012421;28;36881;-81
2021/03/07 11:29:15;;;;;;;9.17;8.07;;;14.00;19.80;;;;;;5012214;28;39625;-81
2021/03/07 11:31:43;;;;;;;11.20;8.33;;;14.00;20.20;;;;;;5007334;28;39551;-82
2021/03/07 11:34:11;;;;;;;13.03;9.23;;;14.10;20.00;;;;;;4989802;28;37849;-81
2021/03/07 11:36:39;;;;;;;10.40;8.63;;;14.10;20.20;;;;;;5009703;28;20590;-80
2021/03/07 11:39:08;;;;;;;9.70;8.70;;;14.30;20.10;;;;;;5008283;28;39195;-82
2021/03/07 11:41:36;;;;;;;10.70;8.87;;;14.20;19.80;;;;;;5015579;28;39638;-81
2021/03/07 11:44:04;;;;;;;9.80;8.80;;;14.10;20.10;;;;;;5017242;28;38620;-81
2021/03/07 11:46:31;;;;;;;10.23;9.17;;;14.30;20.30;;;;;;5014603;28;36698;-83
2021/03/07 11:49:03;;;;;;;9.10;8.10;;;14.30;20.20;;;;;;5023811;28;42451;-81
2021/03/07 11:51:35;;;;;;;9.70;8.70;;;14.10;20.60;;;;;;5016220;28;40253;-83
2021/03/07 11:54:03;;;;;;;10.30;8.70;;;14.10;20.40;;;;;;5000802;28;37574;-81
2021/03/07 11:56:32;;;;;;;11.13;9.27;;;14.10;20.20;;;;;;5014246;28;35240;-81
2021/03/07 11:59:00;;;;;;;11.83;8.80;;;14.10;20.70;;;;;;5010623;28;40388;-81
2021/03/07 12:01:27;;;;;;;9.90;8.70;;;14.20;20.40;;;;;;5003663;28;40167;-81
2021/03/07 12:03:55;;;;;;;9.80;8.37;;;14.20;20.80;;;;;;5010847;28;39137;-82
2021/03/07 12:06:22;;;;;;;9.67;8.50;;;14.40;20.80;;;;;;5007511;28;37186;-82
2021/03/07 12:08:51;;;;;;;14.03;9.80;;;14.20;20.30;;;;;;5010615;28;39085;-82
2021/03/07 12:11:19;;;;;;;20.70;17.13;;;14.20;20.40;;;;;;5010794;28;38914;-82
2021/03/07 12:13:47;;;;;;;10.67;8.93;;;14.40;20.40;;;;;;5023854;28;36459;-76
2021/03/07 12:16:15;;;;;;;9.83;8.53;;;14.10;20.50;;;;;;5021042;28;35857;-74
2021/03/07 12:18:44;;;;;;;10.80;7.90;;;14.10;20.20;;;;;;5025314;28;39758;-75
2021/03/07 12:21:13;;;;;;;11.70;9.10;;;14.10;20.50;;;;;;5029508;28;38911;-75
2021/03/07 12:23:40;;;;;;;13.60;10.30;;;14.00;20.30;;;;;;5031613;28;37773;-75
2021/03/07 12:26:09;;;;;;;11.90;10.23;;;13.80;20.80;;;;;;5017201;28;37426;-75
2021/03/07 12:28:36;;;;;;;13.73;9.20;;;13.50;21.30;;;;;;5037393;28;38217;-76
2021/03/07 12:31:03;;;;;;;10.90;9.50;;;13.30;21.70;;;;;;5024017;28;38768;-75
2021/03/07 12:33:36;;;;;;;12.40;8.57;;;13.20;21.70;;;;;;5035343;28;39069;-75
2021/03/07 12:36:04;;;;;;;10.43;8.30;;;13.00;21.80;;;;;;5038412;28;36829;-76
2021/03/07 12:38:31;;;;;;;10.50;8.50;;;12.80;22.00;;;;;;5039722;28;40710;-76
2021/03/07 12:41:01;;;;;;;11.10;8.80;;;12.60;21.90;;;;;;5055257;28;38777;-76
2021/03/07 12:43:28;;;;;;;14.47;8.40;;;12.30;22.10;;;;;;5039318;28;39206;-75
2021/03/07 12:45:55;;;;;;;13.93;9.80;;;12.10;22.60;;;;;;5026266;28;38666;-76
2021/03/07 12:48:22;;;;;;;11.27;8.50;;;11.80;22.50;;;;;;5025773;28;39572;-75
2021/03/07 12:50:50;;;;;;;10.27;8.87;;;11.50;22.90;;;;;;5009186;28;39328;-74
2021/03/07 12:53:18;;;;;;;9.97;8.50;;;11.30;23.80;;;;;;5034034;28;37081;-76
2021/03/07 12:55:49;;;;;;;9.73;8.27;;;11.20;23.60;;;;;;5023790;28;37210;-75
2021/03/07 12:58:17;;;;;;;11.63;9.23;;;11.10;23.90;;;;;;5024932;28;39484;-75